• Join FlightAware (Why Join?)
  • Login
  • US Flag 
09:45AM EDT


 

Airport Tracker/Info


-or-


 

Live Flight TrackerFlight Track Log ✈ UAL698 ✈ 12-Jul-2013 ✈ KCLE - KTPA

Flight Track Log - Related Links

Times and Time Zones

All times are in EDT time to prevent confusion due to time zone crossing. See the UAL698 flight status page for this flight to view local times or setup timezone preferences in your user account.

Time Position Orientation Groundspeed Altitude Reporting Facility
EDT Latitude Longitude Course Direction KTS MPH feet Rate Location/Type
08:11AM 41.4153 -81.8375 210° Southwest 156 180 1,700  Level Cleveland Center
08:12AM 41.4392 -81.7464 71° East 200 230 4,700 2,160 Climbing Cleveland Center
08:13AM 41.4231 -81.6742 107° East 206 237 7,100 2,700 Climbing Cleveland Center
08:14AM 41.0973 -82.0858 167° South  Level FlightAware Approximate
08:14AM 41.3458 -81.7006 194° South 217 250 10,100  Level Cleveland Center
08:15AM 40.9776 -82.0489 171° South  Level FlightAware Approximate
08:15AM 41.2658 -81.7656 211° Southwest 277 319 12,400  Level Cleveland Center
08:16AM 40.8616 -82.0630 210° Southwest  Level FlightAware Approximate
08:16AM 41.1839 -81.8303 211° Southwest 318 366 15,000  Level Cleveland Center
08:17AM 41.1019 -81.8947 211° Southwest 365 420 17,300 2,100 Climbing Cleveland Center
08:20AM 40.8794 -82.0603 209° Southwest 404 465 22,100 1,800 Climbing Indianapolis Center
08:21AM 40.7797 -82.1333 209° Southwest 406 467 23,300 1,020 Climbing Indianapolis Center
08:22AM 40.6694 -82.2136 209° Southwest 446 513 24,200 1,020 Climbing Indianapolis Center
08:23AM 40.5558 -82.2964 209° Southwest 463 533 25,500 1,260 Climbing Indianapolis Center
08:24AM 40.4392 -82.3814 209° Southwest 473 544 26,900 1,320 Climbing Indianapolis Center
08:25AM 40.3208 -82.4661 209° Southwest 478 550 28,200 1,080 Climbing Indianapolis Center
08:26AM 40.2033 -82.5489 208° Southwest 490 564 29,100 1,200 Climbing Indianapolis Center
08:27AM 40.0428 -82.5978 193° South 500 575 30,800 1,260 Climbing Indianapolis Center
08:28AM 39.9039 -82.6047 182° South 493 567 31,800 1,200 Climbing Indianapolis Center
08:29AM 39.7656 -82.6144 183° South 491 565 33,400 1,320 Climbing Indianapolis Center
08:30AM 39.6292 -82.6231 183° South 485 558 34,600 1,020 Climbing Indianapolis Center
08:31AM 39.4928 -82.6328 183° South 484 557 35,500 960 Climbing Indianapolis Center
08:32AM 39.3581 -82.6422 183° South 481 554 36,600 1,140 Climbing Indianapolis Center
08:33AM 39.2272 -82.6506 183° South 472 543 37,900 660 Climbing Indianapolis Center
08:34AM 39.1083 -82.6581 183° South 456 525 38,000  Climbing Indianapolis Center
08:35AM 38.9814 -82.6664 183° South 459 528 38,000  Level Indianapolis Center
08:36AM 38.8292 -82.6769 183° South 458 527 38,000  Level Indianapolis Center
08:37AM 38.7017 -82.6847 183° South 459 528 38,000  Level Indianapolis Center
08:38AM 38.5775 -82.6917 183° South 457 526 38,000  Level Indianapolis Center
08:39AM 38.4483 -82.7011 183° South 461 531 38,000  Level Indianapolis Center
08:40AM 38.3206 -82.7083 183° South 460 529 38,100  Climbing Indianapolis Center
08:41AM 38.1728 -82.7183 183° South 454 522 38,000 -60 Descending Indianapolis Center
08:42AM 38.0494 -82.7275 183° South 444 511 38,000  Level Indianapolis Center
08:43AM 37.9264 -82.7356 183° South 441 507 38,000  Level Indianapolis Center
08:44AM 37.8042 -82.7436 183° South 439 505 38,000  Level Indianapolis Center
08:45AM 37.6842 -82.7653 188° South 437 503 38,000  Level Indianapolis Center
08:46AM 37.5731 -82.8192 201° Southwest 427 491 38,000  Level Indianapolis Center
08:47AM 37.4683 -82.8897 208° Southwest 425 489 38,000  Level Indianapolis Center
08:48AM 37.3469 -82.9697 208° Southwest 421 484 38,000  Level Indianapolis Center
08:49AM 37.2439 -83.0372 208° Southwest 420 483 38,000  Level Indianapolis Center
08:50AM 37.1411 -83.1042 207° Southwest 418 481 38,000  Level Indianapolis Center
08:51AM 37.0383 -83.1719 208° Southwest 420 483 38,000  Level Indianapolis Center
08:52AM 36.9314 -83.2344 205° Southwest 429 494 38,000  Level Indianapolis Center
08:53AM 36.8161 -83.2767 196° South 434 499 38,000  Level Indianapolis Center
08:55AM 36.6806 -83.3275 197° South 437 503 38,100  Climbing Indianapolis Center
08:56AM 36.5653 -83.3692 196° South 433 498 38,100 -60 Level Indianapolis Center
08:57AM 36.4525 -83.4125 197° South 425 489 38,000 -60 Descending Indianapolis Center
08:58AM 36.3389 -83.4553 197° South 424 488 38,000  Level Indianapolis Center
08:59AM 36.2253 -83.4978 197° South 427 491 38,000  Level Indianapolis Center
09:00AM 36.1142 -83.5386 197° South 424 488 38,000  Level Indianapolis Center
09:00AM 36.0406 -83.5661 197° South 429 494 38,000  Level Atlanta Center
09:01AM 35.9239 -83.6081 196° South 424 488 38,000  Level Atlanta Center
09:02AM 35.8094 -83.6547 198° South 424 488 38,000  Level Atlanta Center
09:03AM 35.6969 -83.6936 196° South 424 488 38,000  Level Atlanta Center
09:04AM 35.5822 -83.7375 197° South 424 488 38,000  Level Atlanta Center
09:05AM 35.4656 -83.7811 197° South 429 494 38,000  Level Atlanta Center
09:06AM 35.3489 -83.8222 196° South 434 499 38,000  Level Atlanta Center
09:07AM 35.2342 -83.8633 196° South 434 499 38,000  Level Atlanta Center
09:08AM 35.1172 -83.9067 197° South 439 505 38,000  Level Atlanta Center
09:09AM 35.0025 -83.9475 196° South 439 505 38,000  Level Atlanta Center
09:10AM 34.8900 -83.9906 197° South 434 499 38,000  Level Atlanta Center
09:11AM 34.7711 -84.0311 196° South 434 499 38,000  Level Atlanta Center
09:12AM 34.6478 -84.0767 197° South 434 499 38,000  Level Atlanta Center
09:13AM 34.5436 -84.1119 196° South 428 493 38,000  Level Atlanta Center
09:14AM 34.4308 -84.1522 196° South 423 487 38,000  Level Atlanta Center
09:15AM 34.3181 -84.1922 196° South 423 487 38,000  Level Atlanta Center
09:16AM 34.2031 -84.2322 196° South 423 487 38,000  Level Atlanta Center
09:17AM 34.0861 -84.2769 198° South 428 493 38,000  Level Atlanta Center
09:18AM 33.9714 -84.3169 196° South 428 493 38,000  Level Atlanta Center
09:19AM 33.8522 -84.3589 196° South 439 505 38,000  Level Atlanta Center
09:20AM 33.7394 -84.3986 196° South 432 497 38,000  Level Atlanta Center
09:21AM 33.6203 -84.4331 194° South 432 497 38,000 -120 Level Atlanta Center
09:22AM 33.4783 -84.4322 180° South 451 519 37,800 -480 Descending Atlanta Center
09:23AM 33.3700 -84.4319 180° South 451 519 37,100 -420 Descending Atlanta Center
09:24AM 33.2447 -84.4289 179° South 444 511 37,000 -60 Descending Atlanta Center
09:25AM 33.1236 -84.4283 180° South 444 511 37,000  Level Atlanta Center
09:26AM 32.9983 -84.4228 178° South 444 511 37,000  Level Atlanta Center
09:27AM 32.8731 -84.4222 180° South 444 511 37,000  Level Atlanta Center
09:28AM 32.7394 -84.4217 180° South 438 504 37,000  Level Atlanta Center
09:29AM 32.6186 -84.4161 178° South 438 504 37,000  Level Atlanta Center
09:30AM 32.4933 -84.4156 180° South 438 504 37,000  Level Atlanta Center
09:31AM 32.3700 -84.4103 178° South 438 504 37,000  Level Atlanta Center
09:32AM 32.2469 -84.4072 179° South 438 504 37,000  Level Atlanta Center
09:33AM 32.1239 -84.4067 180° South 438 504 37,000  Level Atlanta Center
09:34AM 31.9967 -84.4039 179° South 438 504 37,000  Level Atlanta Center
09:35AM 31.8944 -84.4022 179° South 448 516 37,000  Level Jacksonville Center
09:36AM 31.7692 -84.4003 179° South 453 521 37,000  Level Jacksonville Center
09:37AM 31.6419 -84.3983 179° South 453 521 37,000  Level Jacksonville Center
09:38AM 31.5019 -84.3961 179° South 458 527 37,000  Level Jacksonville Center
09:39AM 31.3850 -84.4014 182° South 451 519 37,000  Level Jacksonville Center
09:40AM 31.2883 -84.4631 209° Southwest 402 463 37,000  Level Jacksonville Center
09:41AM 31.1811 -84.5122 201° Southwest 413 475 37,000  Level Jacksonville Center
09:42AM 31.0603 -84.4933 172° South 413 475 37,000  Level Jacksonville Center
09:43AM 30.9417 -84.4644 168° South 423 487 37,000  Level Jacksonville Center
09:44AM 30.8231 -84.4358 168° South 428 493 37,000  Level Jacksonville Center
09:45AM 30.7067 -84.3858 160° South 433 498 37,000  Level Jacksonville Center
09:46AM 30.5967 -84.3164 151° Southeast 439 505 37,100  Climbing Jacksonville Center
09:47AM 30.4992 -84.2594 153° Southeast 439 505 37,000 -60 Descending Jacksonville Center
09:48AM 30.3875 -84.1786 148° Southeast 439 505 37,000  Level Jacksonville Center
09:49AM 30.2839 -84.1000 147° Southeast 439 505 37,000 -60 Level Jacksonville Center
09:50AM 30.1822 -84.0244 147° Southeast 439 505 36,900 -60 Descending Jacksonville Center
09:51AM 30.0825 -83.9439 145° Southeast 439 505 36,900  Level Jacksonville Center
09:52AM 29.9831 -83.8636 145° Southeast 439 505 36,900  Level Jacksonville Center
09:53AM 29.8875 -83.7789 142° Southeast 439 505 36,900  Level Jacksonville Center
09:54AM 29.7881 -83.6919 143° Southeast 444 511 36,900 -120 Level Jacksonville Center
09:55AM 29.6842 -83.6194 149° Southeast 444 511 36,700 -1,320 Descending Jacksonville Center
09:56AM 29.5672 -83.5897 168° South 424 488 34,300 -2,700 Descending Jacksonville Center
09:57AM 29.4464 -83.5628 169° South 436 502 31,400 -3,000 Descending Jacksonville Center
09:58AM 29.3233 -83.5356 169° South 446 513 28,300 -2,280 Descending Jacksonville Center
09:59AM 29.1983 -83.4967 165° South 451 519 26,900 -1,200 Descending Jacksonville Center
10:00AM 29.0839 -83.4247 151° Southeast 456 525 26,000 -1,200 Descending Jacksonville Center
10:01AM 28.9775 -83.3578 151° Southeast 450 518 24,500 -1,800 Descending Jacksonville Center
10:02AM 28.8778 -83.2933 150° Southeast 429 494 22,500 -2,580 Descending Jacksonville Center
10:03AM 28.7861 -83.2336 150° Southeast 402 463 19,400 -2,700 Descending Jacksonville Center
10:06AM 28.5667 -83.1000 152° Southeast 350 403 13,200 -1,920 Descending Tampa TRACON
10:07AM 28.4833 -83.0500 152° Southeast 346 398 12,900 -720 Descending Tampa TRACON
10:08AM 28.4000 -83.0000 152° Southeast 311 358 11,800 -1,320 Descending Tampa TRACON
10:09AM 28.3500 -82.9333 130° Southeast 306 352 10,300 -1,500 Descending Tampa TRACON
10:10AM 28.3333 -82.8500 103° East 297 342 8,800 -1,560 Descending Tampa TRACON
10:11AM 28.3167 -82.7500 101° East 290 334 7,200 -1,440 Descending Tampa TRACON
10:12AM 28.3000 -82.6667 103° East 289 333 6,000 -840 Descending Tampa TRACON
10:13AM 28.2833 -82.5833 103° East 276 318 5,600 -600 Descending Tampa TRACON
10:14AM 28.2500 -82.5167 120° Southeast 246 283 4,800 -900 Descending Tampa TRACON
10:15AM 28.1833 -82.5333 192° South 222 255 3,900 -900 Descending Tampa TRACON